Port Henry, NY (12974)

2:44 AM EDT on September 02, 2014 (GMT -0400)
Moriah, NY 12960 | Change Station
CLOSE
Current Station
Personal Weather Station
Location: Moriah, NY
Elevation: 895 ft
Nearby Weather Stations

Elev 895 ft 44.05 °N, 73.51 °W | Updated 9 seconds ago

Clear
Clear
66.7 °F
Feels Like 66.7 °F
N
0.0
Wind Variable Wind from NNW
Gusts 1.0 mph

Today
High -- | Low -- °F
--% Chance of Precip.
Yesterday
High -- | Low -- °F
Precip. -- in
6:18 AM 7:28 PM
Waxing Crescent, 48% visible
Pressure 29.87 in
Visibility 10.0 miles
Clouds Mostly Cloudy 3800 ft
Overcast 4600 ft
Dew Point 64 °F
Humidity 91%
Rainfall 0.01 in
Snow Depth Not available.
UV 0.0 out of 12
Pollen 6.90 out of 12
Air Quality Not available.
Flu Activity Not available.
METAR K6B0 020635Z AUTO 17005KT 10SM BKN038 OVC046 23/20 A2987 RMK AO2 T02310201

More Conditions Fewer Conditions

Pressure 29.87 in
Visibility 10.0 miles
Clouds Mostly Cloudy 3800 ft
Overcast 4600 ft
Dew Point 64 °F
Humidity 91%
Rainfall 0.01 in
Snow Depth Not available.
UV 0.0 out of 12
Pollen 6.90 out of 12
Air Quality Not available.
Flu Activity Not available.
METAR K6B0 020635Z AUTO 17005KT 10SM BKN038 OVC046 23/20 A2987 RMK AO2 T02310201

More Conditions Fewer Conditions

10-Day Weather Forecast

Almanac

Astronomy

Sep. 02, 2014 Rise Set
Actual Time 6:18 AM EDT 7:28 PM EDT
Civil Twilight 5:48 AM EDT 7:57 PM EDT
Nautical Twilight 5:12 AM EDT 8:33 PM EDT
Astronomical Twilight 4:35 AM EDT 9:10 PM EDT
Moon 2:14 PM EDT No Moon Set
Length of Visible Light 14h 09m
Length of Day
13h 09m
Tomorrow will be 2m 56s shorter.
Waxing Crescent, 48% of the Moon is Illuminated
Today
Waxing Crescent
Sep 2
First Quarter
Sep 8
Full
Sep 15
Last Quarter
Sep 24
New

Today's Extremes

State Highs State Lows

Community

WunderPhotos

Upload Photos

1,749,589 photos uploaded!

WunderBlogs® & News

Nearby

Air Quality

  Air Quality AQ Index Pollutant
Tuesday Good
PM2.5
Tuesday Good
OZONE

Snow Depth

Station Depth Elevation
No new snow has been reported.

Earthquake Activity

City Distance Mag. Time & Date
No recent earthquake activity has been reported nearby.
Minimum magnitude displayed is 2.5.

Coastal Water Temperatures

Place Temperature
No Stations Reporting

Nearby Weather Stations